PDT,Max TemperatureF,Mean TemperatureF,Min TemperatureF,Max Dew PointF,MeanDew PointF,Min DewpointF,Max Humidity, Mean Humidity, Min Humidity, Max Sea Level PressureIn, Mean Sea Level PressureIn, Min Sea Level PressureIn, Max VisibilityMiles, Mean VisibilityMiles, Min VisibilityMiles, Max Wind SpeedMPH, Mean Wind SpeedMPH, Max Gust SpeedMPH,PrecipitationIn, CloudCover, Events, WindDirDegrees
2012-9-1,77,62,48,32,18,0,40,21,6,30.16,30.07,29.97,10,10,10,14,5,22,0.00,0,,275
2012-9-2,80,61,42,23,18,10,36,21,7,30.19,30.14,30.08,10,10,5,13,7,,0.00,0,,15
2012-9-3,86,66,46,36,24,19,39,24,9,30.17,30.11,30.03,10,9,4,15,7,21,0.00,0,,27
2012-9-4,82,64,46,36,32,30,57,31,15,30.21,30.16,30.10,10,10,10,10,5,,0.00,0,,334
2012-9-5,87,68,50,36,32,25,54,30,10,30.16,30.06,29.94,10,10,10,12,6,18,0.00,0,,336
2012-9-6,82,66,50,36,33,23,50,30,12,30.17,30.07,30.01,10,10,10,15,5,18,0.00,0,,351
2012-9-7,87,68,48,36,32,25,58,32,12,30.27,30.22,30.16,10,10,7,10,4,,0.00,0,,89
2012-9-8,91,74,57,32,30,27,36,20,10,30.21,30.10,29.95,10,10,10,16,8,25,0.00,0,,132
2012-9-9,86,72,57,36,32,23,42,26,12,30.02,29.96,29.89,10,10,10,20,8,26,0.00,0,,290
2012-9-10,73,58,44,41,35,30,71,47,25,30.16,30.08,30.02,10,10,10,17,6,24,0.00,0,,278
2012-9-11,69,52,35,32,29,21,81,45,17,30.24,30.20,30.16,10,10,10,12,3,,0.00,0,,283
2012-9-12,77,56,35,27,20,5,60,29,7,30.36,30.30,30.24,10,10,10,12,5,,0.00,0,,84
2012-9-13,87,66,44,21,16,7,34,18,5,30.37,30.30,30.22,10,10,7,14,8,23,0.00,0,,117
2012-9-14,89,72,55,27,18,12,21,14,8,30.24,30.16,30.06,10,10,10,13,8,17,0.00,0,,255
2012-9-15,86,70,53,36,32,28,41,26,14,30.18,30.14,30.07,10,10,10,15,7,23,0.00,0,,21
2012-9-16,78,64,50,36,32,28,50,31,17,30.23,30.18,30.14,10,10,10,13,4,10,0.00,0,,350
2012-9-17,80,62,44,30,24,14,53,27,8,30.25,30.19,30.13,10,10,10,13,7,,0.00,0,,113
2012-9-18,87,69,51,23,20,18,28,17,9,30.21,30.16,30.11,10,10,7,12,8,17,0.00,0,,96
2012-9-19,87,70,53,28,24,21,33,19,9,30.23,30.18,30.14,10,10,10,13,7,16,0.00,0,,99
2012-9-20,89,71,53,28,24,19,38,21,8,30.21,30.15,30.09,10,9,4,14,8,20,0.00,0,,98
2012-9-21,89,71,53,36,26,19,35,21,8,30.14,30.07,29.97,10,7,5,13,8,18,0.00,0,,120
2012-9-22,78,64,51,37,31,23,50,30,17,30.10,30.05,29.99,10,10,7,15,5,20,0.00,0,,253
2012-9-23,64,57,48,45,34,23,82,46,25,30.14,30.10,30.06,10,10,7,16,8,22,0.03,5,Rain,169
2012-9-24,73,57,41,43,41,36,93,58,25,30.17,30.11,30.04,10,10,10,10,5,,0.00,2,,190
2012-9-25,77,62,48,41,38,32,71,45,22,30.09,30.06,30.01,10,10,10,10,5,,0.00,0,,182
2012-9-26,77,60,42,36,25,12,66,35,9,30.12,30.08,30.03,10,10,10,9,4,,0.00,0,,210
2012-9-27,80,61,42,28,24,18,49,27,10,30.14,30.08,30.02,10,10,10,12,5,10,0.00,0,,138
2012-9-28,78,68,59,34,30,27,36,25,17,30.10,30.04,30.01,10,10,10,14,6,,0.00,2,,241
2012-9-29,78,63,48,39,35,32,58,36,18,30.22,30.16,30.10,10,10,5,12,6,,0.00,0,,185
2012-9-30,77,62,46,45,34,21,71,41,13,30.34,30.30,30.23,10,10,2,10,5,,0.00,0,,297